Time;durP1;ratioP1;P1;durP2;ratioP2;P2;SDS_P1;SDS_P2;PMS_P1;PMS_P2;Temp;Humidity;BMP_temperature;BMP_pressure;BME280_temperature;BME280_humidity;BME280_pressure;Samples;Min_cycle;Max_cycle;Signal;HPM_P1;HPM_P2
2023/12/28 00:00:24;;;;;;;118.80;64.72;;;;;;;;;;5031582;28;20021;-85
2023/12/28 00:02:50;;;;;;;100.65;52.63;;;;;;;;;;5032242;28;20025;-84
2023/12/28 00:05:15;;;;;;;84.55;44.17;;;;;;;;;;5033404;28;20029;-84
2023/12/28 00:07:40;;;;;;;86.45;48.83;;;;;;;;;;5050220;28;20017;-84
2023/12/28 00:10:06;;;;;;;85.53;49.45;;;;;;;;;;5028759;28;20025;-84
2023/12/28 00:12:32;;;;;;;117.65;70.82;;;;;;;;;;5032989;28;20021;-84
2023/12/28 00:14:57;;;;;;;52.42;29.92;;;;;;;;;;5049541;28;20017;-84
2023/12/28 00:17:22;;;;;;;86.88;46.65;;;;;;;;;;5031243;28;20024;-84
2023/12/28 00:19:48;;;;;;;80.75;43.53;;;;;;;;;;5048705;28;20022;-84
2023/12/28 00:22:13;;;;;;;87.20;52.38;;;;;;;;;;5049436;28;20033;-84
2023/12/28 00:24:38;;;;;;;78.47;45.17;;;;;;;;;;5046351;28;20029;-84
2023/12/28 00:27:04;;;;;;;137.88;75.78;;;;;;;;;;5048284;28;20055;-85
2023/12/28 00:29:29;;;;;;;104.15;66.75;;;;;;;;;;5047863;28;20025;-84
2023/12/28 00:31:54;;;;;;;99.00;58.67;;;;;;;;;;5046115;28;20017;-84
2023/12/28 00:34:20;;;;;;;77.82;45.03;;;;;;;;;;5039231;28;20029;-84
2023/12/28 00:36:45;;;;;;;97.80;57.00;;;;;;;;;;5047755;28;20075;-84
2023/12/28 00:39:10;;;;;;;87.05;51.90;;;;;;;;;;5028196;28;20539;-84
2023/12/28 00:41:36;;;;;;;94.90;54.92;;;;;;;;;;5027844;28;20044;-85
2023/12/28 00:44:02;;;;;;;98.82;60.78;;;;;;;;;;5025559;28;20018;-85
2023/12/28 00:46:27;;;;;;;92.82;45.53;;;;;;;;;;5044373;28;20024;-85
2023/12/28 00:48:52;;;;;;;71.47;42.17;;;;;;;;;;5027887;28;20411;-85
2023/12/28 00:51:18;;;;;;;65.63;41.47;;;;;;;;;;5028095;28;20022;-85
2023/12/28 00:53:43;;;;;;;137.13;65.55;;;;;;;;;;5027809;28;20033;-85
2023/12/28 00:56:09;;;;;;;90.78;53.15;;;;;;;;;;5044611;28;20025;-85
2023/12/28 00:58:34;;;;;;;87.15;52.13;;;;;;;;;;5028613;28;20025;-85
2023/12/28 01:01:00;;;;;;;96.82;52.70;;;;;;;;;;5028119;28;20024;-85
2023/12/28 01:03:25;;;;;;;116.28;58.30;;;;;;;;;;5046461;28;20020;-85
2023/12/28 01:05:52;;;;;;;123.03;63.67;;;;;;;;;;5043219;28;20068;-85
2023/12/28 01:08:17;;;;;;;110.35;59.95;;;;;;;;;;5041989;28;20020;-85
2023/12/28 01:10:43;;;;;;;109.38;59.28;;;;;;;;;;5024435;28;20041;-84
2023/12/28 01:13:08;;;;;;;101.95;56.58;;;;;;;;;;5041944;28;20097;-85
2023/12/28 01:15:33;;;;;;;98.55;54.00;;;;;;;;;;5027291;28;20100;-85
2023/12/28 01:17:59;;;;;;;80.65;45.42;;;;;;;;;;5042305;28;20438;-84
2023/12/28 01:20:24;;;;;;;67.63;42.45;;;;;;;;;;5024601;28;20026;-84
2023/12/28 01:22:51;;;;;;;69.45;41.90;;;;;;;;;;5025658;28;20072;-84
2023/12/28 01:25:16;;;;;;;74.03;42.88;;;;;;;;;;5026445;28;20028;-84
2023/12/28 01:27:41;;;;;;;63.53;37.72;;;;;;;;;;5044271;28;20021;-85
2023/12/28 01:30:07;;;;;;;65.25;37.00;;;;;;;;;;5042565;28;20036;-84
2023/12/28 01:32:32;;;;;;;55.15;33.65;;;;;;;;;;5043387;28;20013;-84
2023/12/28 01:34:59;;;;;;;64.22;39.25;;;;;;;;;;5043132;28;20045;-85
2023/12/28 01:37:30;;;;;;;62.45;36.60;;;;;;;;;;5012231;28;20046;-84
2023/12/28 01:39:55;;;;;;;68.43;39.53;;;;;;;;;;5010433;28;20052;-84
2023/12/28 01:42:21;;;;;;;54.72;32.25;;;;;;;;;;5012996;28;20391;-84
2023/12/28 01:44:46;;;;;;;55.08;32.60;;;;;;;;;;5013592;28;20022;-86
2023/12/28 01:47:12;;;;;;;63.17;35.65;;;;;;;;;;5012833;28;20105;-86
2023/12/28 01:49:37;;;;;;;62.97;37.70;;;;;;;;;;5030613;28;20072;-86
2023/12/28 01:52:02;;;;;;;54.85;33.83;;;;;;;;;;5031475;28;20025;-84
2023/12/28 01:54:28;;;;;;;60.75;37.92;;;;;;;;;;5012200;28;20105;-84
2023/12/28 01:56:57;;;;;;;59.40;37.80;;;;;;;;;;5030800;28;20086;-84
2023/12/28 01:59:22;;;;;;;74.25;42.08;;;;;;;;;;5030114;28;20014;-84
2023/12/28 02:01:48;;;;;;;66.80;42.22;;;;;;;;;;5029177;28;20083;-84
2023/12/28 02:04:14;;;;;;;62.83;38.70;;;;;;;;;;5011108;28;20055;-84
2023/12/28 02:06:39;;;;;;;70.25;41.05;;;;;;;;;;5027440;28;20045;-84
2023/12/28 02:09:05;;;;;;;62.72;37.60;;;;;;;;;;5010528;28;20025;-86
2023/12/28 02:11:30;;;;;;;54.70;34.03;;;;;;;;;;5027951;28;20025;-84
2023/12/28 02:13:56;;;;;;;130.60;51.88;;;;;;;;;;5020355;28;20014;-84
2023/12/28 02:16:38;;;;;;;72.32;38.20;;;;;;;;;;5026601;28;20025;-85
2023/12/28 02:19:09;;;;;;;66.97;37.42;;;;;;;;;;5022368;28;20377;-84
2023/12/28 02:21:36;;;;;;;57.85;33.08;;;;;;;;;;5027294;28;20025;-84
2023/12/28 02:24:01;;;;;;;57.22;33.17;;;;;;;;;;5023451;28;20445;-84
2023/12/28 02:26:26;;;;;;;55.33;33.70;;;;;;;;;;5026356;28;20112;-84
2023/12/28 02:28:52;;;;;;;63.08;35.78;;;;;;;;;;5007078;28;20080;-84
2023/12/28 02:31:33;;;;;;;59.53;36.15;;;;;;;;;;4990915;28;20068;-84
2023/12/28 02:34:00;;;;;;;60.60;37.58;;;;;;;;;;4997916;28;20064;-84
2023/12/28 02:36:26;;;;;;;66.63;38.80;;;;;;;;;;5009592;28;20058;-84
2023/12/28 02:38:52;;;;;;;69.38;40.13;;;;;;;;;;5024304;28;20024;-84
2023/12/28 02:41:18;;;;;;;173.43;69.25;;;;;;;;;;5024328;28;20045;-84
2023/12/28 02:43:43;;;;;;;68.18;38.55;;;;;;;;;;5028726;28;20026;-84
2023/12/28 02:46:09;;;;;;;43.03;25.15;;;;;;;;;;5011101;28;20017;-84
2023/12/28 02:48:34;;;;;;;32.95;19.40;;;;;;;;;;5030696;28;20075;-84
2023/12/28 02:50:59;;;;;;;49.25;26.83;;;;;;;;;;5010290;28;20057;-84
2023/12/28 02:53:25;;;;;;;33.58;19.25;;;;;;;;;;5028762;28;20018;-84
2023/12/28 02:55:50;;;;;;;53.60;31.65;;;;;;;;;;5028602;28;20439;-84
2023/12/28 02:58:15;;;;;;;62.13;35.13;;;;;;;;;;5025653;28;20017;-84
2023/12/28 03:00:41;;;;;;;128.32;55.75;;;;;;;;;;5004365;28;20070;-84
2023/12/28 03:03:06;;;;;;;90.10;47.67;;;;;;;;;;5021041;28;20562;-84
2023/12/28 03:05:31;;;;;;;65.28;35.17;;;;;;;;;;5024028;28;20046;-84
2023/12/28 03:07:58;;;;;;;51.75;29.77;;;;;;;;;;5008784;28;20022;-84
2023/12/28 03:10:23;;;;;;;38.70;23.05;;;;;;;;;;5028394;28;20096;-84
2023/12/28 03:12:48;;;;;;;36.10;21.27;;;;;;;;;;5026343;28;20472;-84
2023/12/28 03:15:14;;;;;;;32.83;20.88;;;;;;;;;;5008320;28;20090;-84
2023/12/28 03:17:39;;;;;;;213.52;94.80;;;;;;;;;;5008513;28;20029;-84
2023/12/28 03:20:05;;;;;;;46.22;25.48;;;;;;;;;;5010321;28;20018;-84
2023/12/28 03:22:30;;;;;;;364.55;156.55;;;;;;;;;;5026745;28;20018;-84
2023/12/28 03:24:55;;;;;;;44.90;23.63;;;;;;;;;;5028112;28;20021;-84
2023/12/28 03:27:21;;;;;;;136.80;46.03;;;;;;;;;;5024886;28;20032;-84
2023/12/28 03:29:46;;;;;;;71.88;32.20;;;;;;;;;;5006809;28;20030;-84
2023/12/28 03:32:11;;;;;;;31.83;19.30;;;;;;;;;;5025430;28;20436;-84
2023/12/28 03:34:37;;;;;;;148.77;50.25;;;;;;;;;;5009655;28;20030;-84
2023/12/28 03:37:02;;;;;;;352.38;112.45;;;;;;;;;;5036616;28;20131;-84
2023/12/28 03:39:28;;;;;;;177.68;59.72;;;;;;;;;;5026335;28;20021;-84
2023/12/28 03:41:53;;;;;;;443.10;168.02;;;;;;;;;;5044112;28;20526;-84
2023/12/28 03:44:20;;;;;;;37.28;23.10;;;;;;;;;;5045930;28;20028;-84
2023/12/28 03:46:45;;;;;;;43.42;24.70;;;;;;;;;;5027675;28;20120;-84
2023/12/28 03:49:10;;;;;;;89.28;39.28;;;;;;;;;;5046080;28;20037;-84
2023/12/28 03:51:36;;;;;;;284.80;97.60;;;;;;;;;;5047626;28;20365;-84
2023/12/28 03:54:01;;;;;;;885.22;332.23;;;;;;;;;;5046895;28;20036;-84
2023/12/28 03:56:27;;;;;;;266.63;95.68;;;;;;;;;;5029238;28;20030;-84
2023/12/28 03:58:53;;;;;;;313.60;100.38;;;;;;;;;;5028845;28;20014;-84
2023/12/28 04:01:19;;;;;;;315.30;100.63;;;;;;;;;;5034587;28;20487;-84
2023/12/28 04:03:44;;;;;;;140.50;47.78;;;;;;;;;;5034308;28;20028;-84
2023/12/28 04:06:12;;;;;;;268.05;94.70;;;;;;;;;;5047096;28;20029;-84
2023/12/28 04:08:38;;;;;;;379.00;131.70;;;;;;;;;;5028879;28;20021;-84
2023/12/28 04:11:03;;;;;;;354.38;116.00;;;;;;;;;;5048363;28;20078;-84
2023/12/28 04:13:29;;;;;;;29.17;16.42;;;;;;;;;;5030492;28;20012;-84
2023/12/28 04:15:54;;;;;;;28.77;16.67;;;;;;;;;;5047431;28;20383;-84
2023/12/28 04:18:19;;;;;;;42.00;21.13;;;;;;;;;;5039842;28;20024;-84
2023/12/28 04:20:45;;;;;;;70.00;29.73;;;;;;;;;;5023214;28;20064;-84
2023/12/28 04:23:10;;;;;;;68.38;26.63;;;;;;;;;;5029106;28;20029;-84
2023/12/28 04:25:35;;;;;;;24.23;15.73;;;;;;;;;;5027270;28;20502;-84
2023/12/28 04:28:01;;;;;;;29.60;17.08;;;;;;;;;;5043613;28;20040;-84
2023/12/28 04:30:27;;;;;;;26.95;15.27;;;;;;;;;;5026789;28;20029;-84
2023/12/28 04:32:52;;;;;;;62.35;26.60;;;;;;;;;;5044148;28;20372;-84
2023/12/28 04:35:17;;;;;;;61.03;31.30;;;;;;;;;;5045613;28;20017;-84
2023/12/28 04:37:43;;;;;;;41.25;23.77;;;;;;;;;;5027289;28;20044;-84
2023/12/28 04:40:08;;;;;;;45.88;24.38;;;;;;;;;;5037714;28;20037;-84
2023/12/28 04:42:34;;;;;;;55.50;31.38;;;;;;;;;;5041062;28;20028;-84
2023/12/28 04:44:59;;;;;;;68.03;38.72;;;;;;;;;;5041333;28;20025;-84
2023/12/28 04:47:24;;;;;;;83.55;42.72;;;;;;;;;;5025688;28;20476;-84
2023/12/28 04:49:50;;;;;;;166.85;67.95;;;;;;;;;;5030789;28;20029;-84
2023/12/28 04:52:15;;;;;;;40.15;21.60;;;;;;;;;;5043837;28;20029;-84
2023/12/28 04:54:40;;;;;;;36.50;22.33;;;;;;;;;;5024190;28;20022;-84
2023/12/28 04:57:08;;;;;;;31.02;18.27;;;;;;;;;;5024539;28;20489;-84
2023/12/28 04:59:37;;;;;;;44.63;26.90;;;;;;;;;;5041106;28;20047;-84
2023/12/28 05:02:02;;;;;;;51.33;31.67;;;;;;;;;;5023950;28;20021;-84
2023/12/28 05:04:28;;;;;;;50.08;31.95;;;;;;;;;;5041141;28;20055;-84
2023/12/28 05:06:54;;;;;;;66.13;37.85;;;;;;;;;;5039797;28;20048;-84
2023/12/28 05:09:19;;;;;;;58.88;35.08;;;;;;;;;;5041824;28;20590;-84
2023/12/28 05:11:44;;;;;;;76.60;47.50;;;;;;;;;;5040921;28;20025;-84
2023/12/28 05:14:09;;;;;;;93.85;60.00;;;;;;;;;;5021483;28;20017;-84
2023/12/28 05:16:35;;;;;;;47.97;34.38;;;;;;;;;;5038680;28;20502;-84
2023/12/28 05:19:00;;;;;;;55.03;35.10;;;;;;;;;;5020696;28;20494;-84
2023/12/28 05:21:26;;;;;;;45.47;28.67;;;;;;;;;;5021914;28;20475;-84
2023/12/28 05:23:52;;;;;;;37.88;24.20;;;;;;;;;;5038091;28;20028;-84
2023/12/28 05:26:17;;;;;;;38.35;25.13;;;;;;;;;;5039934;28;20037;-84
2023/12/28 05:28:42;;;;;;;43.92;26.55;;;;;;;;;;5020521;28;20518;-84
2023/12/28 05:31:07;;;;;;;51.45;30.42;;;;;;;;;;5038616;28;20506;-84
2023/12/28 05:33:33;;;;;;;54.15;30.50;;;;;;;;;;5038704;28;20044;-84
2023/12/28 05:35:58;;;;;;;54.30;32.53;;;;;;;;;;5019921;28;20049;-84
2023/12/28 05:38:23;;;;;;;39.58;25.80;;;;;;;;;;5037803;28;20022;-84
2023/12/28 05:40:49;;;;;;;41.50;27.02;;;;;;;;;;5019813;28;20033;-84
2023/12/28 05:43:15;;;;;;;53.97;29.98;;;;;;;;;;5035921;28;20375;-84
2023/12/28 05:45:40;;;;;;;46.30;29.88;;;;;;;;;;5020460;28;20246;-84
2023/12/28 05:48:06;;;;;;;48.75;30.75;;;;;;;;;;5036894;28;20419;-84
2023/12/28 05:50:31;;;;;;;54.45;32.13;;;;;;;;;;5021126;28;20036;-84
2023/12/28 05:52:56;;;;;;;64.03;38.97;;;;;;;;;;5037521;28;20029;-84
2023/12/28 05:55:22;;;;;;;80.38;49.05;;;;;;;;;;5021256;28;20048;-84
2023/12/28 05:57:48;;;;;;;80.72;49.20;;;;;;;;;;5020548;28;20014;-84
2023/12/28 06:00:14;;;;;;;90.63;49.83;;;;;;;;;;5003966;28;20021;-84
2023/12/28 06:02:40;;;;;;;87.72;48.75;;;;;;;;;;5019112;28;20506;-85
2023/12/28 06:05:05;;;;;;;73.43;41.38;;;;;;;;;;5019862;28;20022;-84
2023/12/28 06:07:31;;;;;;;119.20;59.63;;;;;;;;;;5035335;28;20056;-84
2023/12/28 06:09:56;;;;;;;92.68;52.40;;;;;;;;;;5034715;28;20519;-84
2023/12/28 06:12:21;;;;;;;112.25;55.45;;;;;;;;;;4999107;28;20021;-84
2023/12/28 06:14:47;;;;;;;121.20;65.45;;;;;;;;;;5016728;28;20056;-84
2023/12/28 06:17:14;;;;;;;377.83;194.57;;;;;;;;;;5033185;28;20085;-84
2023/12/28 06:19:40;;;;;;;220.88;142.15;;;;;;;;;;5016242;28;20021;-84
2023/12/28 06:22:05;;;;;;;151.45;97.55;;;;;;;;;;5015482;28;20440;-84
2023/12/28 06:24:30;;;;;;;118.45;75.95;;;;;;;;;;5034190;28;20116;-84
2023/12/28 06:26:56;;;;;;;93.15;58.33;;;;;;;;;;5038070;28;20022;-84
2023/12/28 06:29:21;;;;;;;101.57;63.38;;;;;;;;;;5029682;28;20463;-84
2023/12/28 06:31:47;;;;;;;112.85;75.70;;;;;;;;;;5031086;28;20018;-84
2023/12/28 06:34:16;;;;;;;114.63;77.80;;;;;;;;;;5043429;28;20085;-84
2023/12/28 06:36:43;;;;;;;;;;;;;;;;;;5051331;28;20052;-84
2023/12/28 06:39:08;;;;;;;86.72;53.03;;;;;;;;;;5049848;28;19905;-83
2023/12/28 06:41:33;;;;;;;70.22;41.80;;;;;;;;;;5050764;28;20108;-84
2023/12/28 06:43:59;;;;;;;102.35;58.78;;;;;;;;;;5028439;28;20374;-84
2023/12/28 06:46:24;;;;;;;173.95;100.32;;;;;;;;;;5043711;28;20024;-84
2023/12/28 06:48:49;;;;;;;112.65;73.72;;;;;;;;;;5047499;28;20010;-84
2023/12/28 06:51:18;;;;;;;103.57;59.25;;;;;;;;;;5028925;28;20028;-84
2023/12/28 06:53:44;;;;;;;125.15;68.10;;;;;;;;;;5050679;28;20032;-84
2023/12/28 06:56:09;;;;;;;119.38;68.60;;;;;;;;;;5033743;28;20017;-84
2023/12/28 06:58:34;;;;;;;99.97;55.90;;;;;;;;;;5031783;28;20165;-83
2023/12/28 07:01:02;;;;;;;87.60;51.03;;;;;;;;;;5048629;28;20016;-84
2023/12/28 07:03:30;;;;;;;89.45;52.17;;;;;;;;;;5046072;28;20028;-84
2023/12/28 07:05:55;;;;;;;81.30;48.22;;;;;;;;;;5029247;28;20036;-84
2023/12/28 07:08:21;;;;;;;91.03;58.08;;;;;;;;;;5014810;28;20033;-84
2023/12/28 07:10:46;;;;;;;118.80;79.55;;;;;;;;;;5031352;28;20022;-84
2023/12/28 07:13:11;;;;;;;102.68;69.25;;;;;;;;;;5032355;28;20467;-84
2023/12/28 07:15:36;;;;;;;112.40;65.53;;;;;;;;;;5032248;28;20041;-84
2023/12/28 07:18:02;;;;;;;145.45;80.50;;;;;;;;;;5029489;28;20018;-83
2023/12/28 07:20:27;;;;;;;100.88;60.90;;;;;;;;;;5028910;28;20018;-84
2023/12/28 07:22:52;;;;;;;92.03;54.67;;;;;;;;;;5043768;28;20368;-84
2023/12/28 07:25:18;;;;;;;83.35;49.42;;;;;;;;;;5036958;28;20045;-84
2023/12/28 07:27:43;;;;;;;75.07;47.45;;;;;;;;;;5040502;28;20025;-84
2023/12/28 07:30:09;;;;;;;65.95;42.75;;;;;;;;;;5028341;28;20029;-84
2023/12/28 07:32:34;;;;;;;76.80;44.80;;;;;;;;;;5040738;28;20487;-84
2023/12/28 07:35:00;;;;;;;64.28;39.13;;;;;;;;;;5023706;28;20022;-84
2023/12/28 07:37:25;;;;;;;61.53;40.08;;;;;;;;;;5025714;28;20049;-84
2023/12/28 07:39:51;;;;;;;61.17;42.00;;;;;;;;;;5009516;28;20210;-84
2023/12/28 07:42:16;;;;;;;72.63;45.30;;;;;;;;;;5025734;28;20029;-83
2023/12/28 07:44:43;;;;;;;148.10;86.53;;;;;;;;;;5031346;28;20475;-85
2023/12/28 07:47:08;;;;;;;67.82;44.03;;;;;;;;;;5027820;28;20089;-84
2023/12/28 07:49:33;;;;;;;71.03;44.03;;;;;;;;;;5045508;28;20375;-84
2023/12/28 07:51:59;;;;;;;60.13;37.35;;;;;;;;;;5046525;28;20109;-84
2023/12/28 07:54:24;;;;;;;77.35;45.53;;;;;;;;;;5028112;28;20021;-84
2023/12/28 07:56:49;;;;;;;93.22;51.85;;;;;;;;;;5047587;28;20071;-84
2023/12/28 07:59:14;;;;;;;82.20;51.72;;;;;;;;;;5043634;28;20033;-84
2023/12/28 08:01:40;;;;;;;65.50;39.25;;;;;;;;;;5043673;28;20021;-83
2023/12/28 08:04:05;;;;;;;229.05;92.75;;;;;;;;;;5017623;28;20017;-84
2023/12/28 08:06:32;;;;;;;86.97;46.28;;;;;;;;;;5012444;28;20033;-84
2023/12/28 08:08:59;;;;;;;81.95;48.92;;;;;;;;;;5045309;28;20021;-84
2023/12/28 08:11:24;;;;;;;229.18;87.70;;;;;;;;;;5045982;28;20018;-84
2023/12/28 08:13:49;;;;;;;538.55;212.75;;;;;;;;;;5046008;28;20036;-84
2023/12/28 08:16:15;;;;;;;463.00;181.60;;;;;;;;;;5032076;28;20057;-84
2023/12/28 08:18:41;;;;;;;120.20;62.97;;;;;;;;;;5048311;28;20014;-84
2023/12/28 08:21:06;;;;;;;92.25;56.72;;;;;;;;;;5026354;28;20017;-84
2023/12/28 08:23:31;;;;;;;82.40;52.75;;;;;;;;;;5045711;28;20029;-84
2023/12/28 08:25:56;;;;;;;48.03;31.02;;;;;;;;;;5029635;28;20025;-84
2023/12/28 08:28:23;;;;;;;42.28;29.52;;;;;;;;;;5048672;28;20022;-84
2023/12/28 08:30:48;;;;;;;35.90;25.10;;;;;;;;;;5047485;28;20025;-84
2023/12/28 08:33:13;;;;;;;36.80;24.83;;;;;;;;;;5045583;28;20041;-84
2023/12/28 08:35:39;;;;;;;32.28;23.02;;;;;;;;;;5030599;28;20027;-84
2023/12/28 08:38:05;;;;;;;33.95;24.40;;;;;;;;;;5044394;28;20044;-84
2023/12/28 08:40:31;;;;;;;35.70;26.25;;;;;;;;;;5048054;28;20029;-84
2023/12/28 08:42:56;;;;;;;39.47;30.80;;;;;;;;;;5034151;28;20024;-84
2023/12/28 08:45:21;;;;;;;33.90;27.30;;;;;;;;;;5029077;28;20064;-84
2023/12/28 08:47:47;;;;;;;34.50;24.80;;;;;;;;;;5047320;28;20021;-84
2023/12/28 08:50:12;;;;;;;29.83;23.77;;;;;;;;;;5047316;28;20018;-83
2023/12/28 08:52:37;;;;;;;27.65;20.95;;;;;;;;;;5034108;28;20017;-83
2023/12/28 08:55:03;;;;;;;31.35;24.55;;;;;;;;;;5050508;28;20025;-83
2023/12/28 08:57:28;;;;;;;29.40;22.50;;;;;;;;;;5049639;28;20017;-83
2023/12/28 08:59:53;;;;;;;30.80;23.73;;;;;;;;;;5048866;28;20049;-83
2023/12/28 09:02:19;;;;;;;23.05;19.42;;;;;;;;;;5043583;28;20506;-83
2023/12/28 09:04:44;;;;;;;26.92;21.38;;;;;;;;;;5030645;28;20037;-83
2023/12/28 09:07:09;;;;;;;27.95;22.05;;;;;;;;;;5033376;28;20026;-83
2023/12/28 09:09:36;;;;;;;21.70;18.13;;;;;;;;;;5030398;28;20041;-83
2023/12/28 09:12:01;;;;;;;18.60;14.82;;;;;;;;;;5048153;28;20045;-83
2023/12/28 09:14:27;;;;;;;18.83;14.88;;;;;;;;;;5046091;28;20022;-84
2023/12/28 09:16:52;;;;;;;16.45;12.77;;;;;;;;;;5047991;28;20181;-83
2023/12/28 09:19:17;;;;;;;13.27;11.43;;;;;;;;;;5050479;28;20009;-84
2023/12/28 09:21:43;;;;;;;13.48;12.07;;;;;;;;;;5034543;28;20040;-84
2023/12/28 09:24:08;;;;;;;15.60;12.70;;;;;;;;;;5048325;28;20529;-84
2023/12/28 09:26:33;;;;;;;20.83;14.05;;;;;;;;;;5027883;28;20060;-83
2023/12/28 09:28:59;;;;;;;17.13;13.63;;;;;;;;;;5048858;28;20014;-84
2023/12/28 09:31:24;;;;;;;14.63;12.10;;;;;;;;;;5032544;28;20372;-85
2023/12/28 09:33:49;;;;;;;16.40;12.82;;;;;;;;;;5047152;28;20025;-84
2023/12/28 09:36:16;;;;;;;17.02;14.32;;;;;;;;;;5049419;28;20037;-85
2023/12/28 09:38:42;;;;;;;14.88;12.63;;;;;;;;;;5033959;28;20025;-84
2023/12/28 09:41:17;;;;;;;18.92;13.52;;;;;;;;;;5018848;28;20097;-84
2023/12/28 09:44:00;;;;;;;18.40;13.32;;;;;;;;;;5035912;28;20041;-84
2023/12/28 09:46:29;;;;;;;19.02;13.98;;;;;;;;;;5033960;28;20047;-84
2023/12/28 09:48:56;;;;;;;12.93;9.75;;;;;;;;;;5031958;28;20013;-85
2023/12/28 09:51:21;;;;;;;15.60;11.40;;;;;;;;;;5018580;28;20014;-86
2023/12/28 09:53:46;;;;;;;17.33;13.30;;;;;;;;;;5035069;28;20029;-86
2023/12/28 09:56:12;;;;;;;12.45;10.32;;;;;;;;;;5017237;28;20470;-86
2023/12/28 09:58:39;;;;;;;15.65;12.02;;;;;;;;;;5050677;28;20010;-86
2023/12/28 10:01:05;;;;;;;10.40;9.27;;;;;;;;;;5051969;28;20586;-85
2023/12/28 10:03:30;;;;;;;11.65;8.90;;;;;;;;;;5038064;28;20048;-84
2023/12/28 10:05:55;;;;;;;11.32;9.10;;;;;;;;;;5054314;28;20025;-84
2023/12/28 10:08:20;;;;;;;13.30;11.20;;;;;;;;;;5054197;28;20089;-85
2023/12/28 10:10:50;;;;;;;9.10;8.20;;;;;;;;;;5035947;28;20077;-85
2023/12/28 10:13:16;;;;;;;10.30;8.07;;;;;;;;;;5054425;28;20013;-85
2023/12/28 10:15:43;;;;;;;11.98;8.05;;;;;;;;;;5039238;28;20109;-84
2023/12/28 10:18:08;;;;;;;10.68;8.50;;;;;;;;;;5055359;28;20037;-85
2023/12/28 10:20:33;;;;;;;14.70;9.13;;;;;;;;;;5057250;28;20018;-84
2023/12/28 10:22:59;;;;;;;11.60;9.27;;;;;;;;;;5040491;28;20009;-84
2023/12/28 10:25:25;;;;;;;8.13;6.88;;;;;;;;;;5057666;28;20021;-85
2023/12/28 10:27:53;;;;;;;9.43;6.38;;;;;;;;;;5040913;28;20069;-85
2023/12/28 10:30:20;;;;;;;11.80;8.50;;;;;;;;;;5057483;28;20045;-85
2023/12/28 10:32:45;;;;;;;8.23;7.15;;;;;;;;;;5049339;28;20037;-85
2023/12/28 10:35:10;;;;;;;8.40;6.85;;;;;;;;;;5025622;28;20120;-84
2023/12/28 10:37:38;;;;;;;10.60;6.80;;;;;;;;;;5045757;28;20041;-84
2023/12/28 10:40:07;;;;;;;9.57;6.83;;;;;;;;;;5032925;28;20049;-84
2023/12/28 10:42:33;;;;;;;9.90;7.70;;;;;;;;;;5021857;28;20030;-85
2023/12/28 10:45:05;;;;;;;8.07;6.75;;;;;;;;;;5034003;28;20470;-85
2023/12/28 10:47:37;;;;;;;9.23;7.75;;;;;;;;;;5033146;28;20083;-84
2023/12/28 10:50:05;;;;;;;9.77;7.47;;;;;;;;;;5031840;28;20017;-85
2023/12/28 10:52:30;;;;;;;;;;;;;;;;;;5032333;28;20544;-85
2023/12/28 10:55:05;;;;;;;8.73;6.22;;;;;;;;;;5032526;28;20400;-85
2023/12/28 10:57:33;;;;;;;8.90;6.88;;;;;;;;;;5018394;28;20060;-85
2023/12/28 11:00:06;;;;;;;10.40;7.65;;;;;;;;;;5031418;28;20030;-84
2023/12/28 11:02:36;;;;;;;10.07;7.20;;;;;;;;;;5030603;28;20061;-85
2023/12/28 11:05:02;;;;;;;9.38;7.20;;;;;;;;;;5030043;28;20087;-85
2023/12/28 11:07:32;;;;;;;12.13;8.05;;;;;;;;;;5028994;28;20546;-85
2023/12/28 11:09:58;;;;;;;8.85;7.07;;;;;;;;;;5013524;28;20491;-84
2023/12/28 11:12:25;;;;;;;8.80;7.20;;;;;;;;;;5026627;28;20044;-85
2023/12/28 11:14:52;;;;;;;8.18;6.38;;;;;;;;;;5030321;28;20017;-84
2023/12/28 11:17:19;;;;;;;7.00;6.30;;;;;;;;;;5013834;28;20025;-83
2023/12/28 11:19:44;;;;;;;8.32;6.72;;;;;;;;;;5029453;28;20189;-84
2023/12/28 11:22:10;;;;;;;7.35;6.00;;;;;;;;;;5029505;28;20522;-84
2023/12/28 11:24:36;;;;;;;14.85;7.13;;;;;;;;;;5029317;28;20411;-84
2023/12/28 11:27:01;;;;;;;8.35;6.32;;;;;;;;;;5028920;28;20021;-86
2023/12/28 11:29:30;;;;;;;7.30;5.72;;;;;;;;;;5015272;28;20025;-84
2023/12/28 11:31:58;;;;;;;13.38;9.30;;;;;;;;;;5012986;28;20018;-83
2023/12/28 11:34:30;;;;;;;7.65;6.50;;;;;;;;;;5029972;28;20017;-85
2023/12/28 11:36:56;;;;;;;11.57;9.82;;;;;;;;;;5029037;28;20044;-83
2023/12/28 11:39:29;;;;;;;13.18;11.77;;;;;;;;;;5029569;28;20063;-83
2023/12/28 11:42:00;;;;;;;13.70;11.73;;;;;;;;;;5010699;28;20018;-84
2023/12/28 11:44:26;;;;;;;37.05;29.77;;;;;;;;;;5012905;28;20022;-84
2023/12/28 11:46:51;;;;;;;16.80;14.13;;;;;;;;;;5006149;28;20052;-84
2023/12/28 11:49:24;;;;;;;21.15;17.50;;;;;;;;;;5028902;28;20458;-83
2023/12/28 11:51:54;;;;;;;13.30;10.85;;;;;;;;;;5025100;28;20105;-84
2023/12/28 11:54:19;;;;;;;11.60;8.60;;;;;;;;;;5017412;28;20053;-84
2023/12/28 11:56:45;;;;;;;9.20;7.25;;;;;;;;;;5027816;28;20029;-84
2023/12/28 11:59:10;;;;;;;8.27;6.50;;;;;;;;;;5028769;28;20103;-83
2023/12/28 12:01:35;;;;;;;7.63;6.20;;;;;;;;;;5028468;28;20035;-83
2023/12/28 12:04:01;;;;;;;6.90;5.88;;;;;;;;;;5027413;28;20063;-83
2023/12/28 12:06:26;;;;;;;9.18;6.60;;;;;;;;;;5022051;28;20033;-84
2023/12/28 12:08:51;;;;;;;8.95;8.05;;;;;;;;;;5010427;28;20037;-84
2023/12/28 12:11:18;;;;;;;15.90;14.30;;;;;;;;;;5028755;28;20450;-84
2023/12/28 12:13:43;;;;;;;8.55;7.50;;;;;;;;;;5011008;28;20030;-84
2023/12/28 12:16:09;;;;;;;7.93;6.45;;;;;;;;;;5029096;28;20025;-85
2023/12/28 12:18:35;;;;;;;7.97;7.18;;;;;;;;;;5027290;28;20028;-84
2023/12/28 12:21:01;;;;;;;10.57;6.88;;;;;;;;;;5028867;28;20031;-84
2023/12/28 12:23:27;;;;;;;12.48;9.15;;;;;;;;;;5010319;28;20098;-84
2023/12/28 12:25:53;;;;;;;15.13;11.90;;;;;;;;;;5028271;28;20030;-84
2023/12/28 12:28:18;;;;;;;12.88;11.43;;;;;;;;;;5010613;28;20021;-84
2023/12/28 12:30:53;;;;;;;16.35;13.10;;;;;;;;;;5017874;28;20030;-84
2023/12/28 12:33:20;;;;;;;10.77;6.45;;;;;;;;;;5027153;28;20029;-84
2023/12/28 12:35:45;;;;;;;9.02;7.63;;;;;;;;;;5028297;28;20021;-84
2023/12/28 12:38:11;;;;;;;10.18;7.82;;;;;;;;;;5010201;28;20049;-84
2023/12/28 12:40:36;;;;;;;13.98;9.95;;;;;;;;;;5010869;28;20075;-84
2023/12/28 12:43:02;;;;;;;15.93;13.35;;;;;;;;;;5026736;28;20029;-84
2023/12/28 12:45:27;;;;;;;19.75;14.95;;;;;;;;;;5028093;28;20100;-84
2023/12/28 12:47:52;;;;;;;15.43;13.77;;;;;;;;;;5028386;28;20343;-84
2023/12/28 12:50:18;;;;;;;24.20;19.58;;;;;;;;;;5010832;28;20033;-84
2023/12/28 12:52:45;;;;;;;23.60;19.52;;;;;;;;;;5027601;28;20021;-84
2023/12/28 12:55:11;;;;;;;28.13;20.98;;;;;;;;;;5028210;28;20598;-84
2023/12/28 12:57:37;;;;;;;29.02;22.10;;;;;;;;;;5027061;28;20383;-84
2023/12/28 13:00:05;;;;;;;25.83;19.45;;;;;;;;;;5028855;28;20391;-84
2023/12/28 13:02:33;;;;;;;18.83;12.90;;;;;;;;;;5022749;28;20174;-84
2023/12/28 13:04:58;;;;;;;19.20;16.03;;;;;;;;;;5027980;28;20029;-84
2023/12/28 13:07:23;;;;;;;18.42;16.42;;;;;;;;;;5027776;28;20620;-84
2023/12/28 13:09:49;;;;;;;15.18;12.70;;;;;;;;;;5028203;28;20029;-83
2023/12/28 13:12:14;;;;;;;19.13;11.27;;;;;;;;;;5027163;28;20039;-83
2023/12/28 13:14:40;;;;;;;20.08;12.00;;;;;;;;;;5010090;28;20071;-83
2023/12/28 13:17:05;;;;;;;26.90;15.98;;;;;;;;;;5027593;28;20025;-84
2023/12/28 13:19:30;;;;;;;20.95;11.77;;;;;;;;;;5027743;28;20052;-84
2023/12/28 13:21:56;;;;;;;13.30;9.95;;;;;;;;;;5028500;28;20017;-84
2023/12/28 13:24:21;;;;;;;13.15;11.60;;;;;;;;;;5027672;28;20022;-84
2023/12/28 13:26:47;;;;;;;17.58;13.40;;;;;;;;;;5027964;28;20105;-84
2023/12/28 13:29:13;;;;;;;20.13;13.13;;;;;;;;;;5010199;28;20017;-84
2023/12/28 13:31:39;;;;;;;14.90;11.80;;;;;;;;;;5027431;28;20021;-84
2023/12/28 13:34:04;;;;;;;20.65;16.45;;;;;;;;;;5008469;28;20087;-84
2023/12/28 13:36:29;;;;;;;21.13;14.40;;;;;;;;;;5027503;28;20049;-83
2023/12/28 13:38:55;;;;;;;17.92;12.85;;;;;;;;;;5027104;28;20018;-85
2023/12/28 13:41:20;;;;;;;18.33;12.55;;;;;;;;;;5027879;28;20582;-85
2023/12/28 13:43:45;;;;;;;23.05;17.75;;;;;;;;;;5009505;28;20033;-85
2023/12/28 13:46:11;;;;;;;23.73;16.42;;;;;;;;;;5009642;28;20502;-83
2023/12/28 13:48:38;;;;;;;27.88;21.05;;;;;;;;;;5022908;28;20392;-83
2023/12/28 13:51:04;;;;;;;18.88;15.05;;;;;;;;;;5027626;28;20302;-82
2023/12/28 13:53:31;;;;;;;22.42;14.82;;;;;;;;;;5028721;28;20033;-83
2023/12/28 13:55:56;;;;;;;21.42;15.68;;;;;;;;;;5037412;28;20473;-83
2023/12/28 13:58:22;;;;;;;35.10;21.38;;;;;;;;;;5037463;28;20102;-82
2023/12/28 14:00:47;;;;;;;38.40;27.77;;;;;;;;;;5045294;28;20044;-83
2023/12/28 14:03:12;;;;;;;48.83;32.55;;;;;;;;;;5044023;28;20029;-82
2023/12/28 14:05:38;;;;;;;47.03;28.73;;;;;;;;;;5021841;28;20026;-82
2023/12/28 14:08:03;;;;;;;59.13;36.42;;;;;;;;;;5043117;28;20013;-82
2023/12/28 14:10:29;;;;;;;51.53;33.15;;;;;;;;;;5020578;28;20030;-84